createdAt,value
2019-03-29T00:01:20.362Z,9.60
2019-03-29T00:04:00.919Z,9.60
2019-03-29T00:06:41.178Z,9.60
2019-03-29T00:09:21.231Z,9.10
2019-03-29T00:12:01.365Z,9.50
2019-03-29T00:14:41.970Z,9.60
2019-03-29T00:17:22.585Z,10.60
2019-03-29T00:20:05.789Z,9.60
2019-03-29T00:22:44.383Z,9.60
2019-03-29T00:25:24.521Z,8.90
2019-03-29T00:28:04.531Z,10.90
2019-03-29T00:30:44.514Z,9.60
2019-03-29T00:33:24.517Z,9.10
2019-03-29T00:36:04.448Z,9.70
2019-03-29T00:38:44.196Z,9.40
2019-03-29T00:41:24.399Z,9.50
2019-03-29T00:44:05.171Z,8.60
2019-03-29T00:46:45.263Z,9.50
2019-03-29T00:49:25.130Z,9.50
2019-03-29T00:52:05.327Z,9.50
2019-03-29T00:54:45.346Z,9.00
2019-03-29T00:57:25.527Z,10.20
2019-03-29T01:00:06.287Z,9.80
2019-03-29T01:02:46.527Z,9.40
2019-03-29T01:05:26.480Z,8.60
2019-03-29T01:08:07.990Z,9.90
2019-03-29T01:10:48.895Z,9.70
2019-03-29T01:13:29.715Z,9.40
2019-03-29T01:16:09.638Z,9.80
2019-03-29T01:18:49.787Z,9.50
2019-03-29T01:21:29.698Z,9.40
2019-03-29T01:24:09.802Z,9.40
2019-03-29T01:26:49.575Z,10.70
2019-03-29T01:29:30.330Z,9.40
2019-03-29T01:32:10.545Z,9.50
2019-03-29T01:34:50.665Z,9.60
2019-03-29T01:37:30.532Z,9.20
2019-03-29T01:40:10.717Z,9.10
2019-03-29T01:42:50.635Z,9.00
2019-03-29T01:45:30.931Z,9.10
2019-03-29T01:48:10.952Z,9.40
2019-03-29T01:50:50.960Z,9.00
2019-03-29T01:53:31.079Z,8.40
2019-03-29T01:56:10.843Z,8.30
2019-03-29T01:58:50.978Z,9.30
2019-03-29T02:01:30.815Z,7.30
2019-03-29T02:04:10.933Z,6.90
2019-03-29T02:06:50.850Z,7.60
2019-03-29T02:09:31.020Z,7.50
2019-03-29T02:12:11.075Z,6.70
2019-03-29T02:14:51.301Z,7.20
2019-03-29T02:17:31.128Z,7.10
2019-03-29T02:20:11.144Z,7.40
2019-03-29T02:22:50.908Z,6.90
2019-03-29T02:25:30.947Z,6.70
2019-03-29T02:28:10.728Z,7.40
2019-03-29T02:30:50.837Z,6.50
2019-03-29T02:33:30.579Z,6.40
2019-03-29T02:36:10.348Z,6.30
2019-03-29T02:38:55.850Z,7.10
2019-03-29T02:41:32.559Z,6.10
2019-03-29T02:44:12.630Z,6.00
2019-03-29T02:46:53.592Z,5.20
2019-03-29T02:49:34.668Z,6.90
2019-03-29T02:52:14.831Z,7.20
2019-03-29T02:54:54.970Z,5.80
2019-03-29T02:57:35.289Z,4.70
2019-03-29T03:00:15.188Z,5.70
2019-03-29T03:02:55.345Z,5.70
2019-03-29T03:05:35.244Z,5.60
2019-03-29T03:08:15.152Z,5.90
2019-03-29T03:10:55.208Z,5.40
2019-03-29T03:13:35.377Z,6.60
2019-03-29T03:16:15.662Z,5.30
2019-03-29T03:18:55.696Z,5.20
2019-03-29T03:21:35.896Z,4.30
2019-03-29T03:24:16.028Z,5.10
2019-03-29T03:26:56.091Z,4.70
2019-03-29T03:29:36.165Z,4.10
2019-03-29T03:32:16.131Z,4.60
2019-03-29T03:34:56.083Z,4.90
2019-03-29T03:37:36.379Z,4.80
2019-03-29T03:40:16.551Z,4.70
2019-03-29T03:42:56.591Z,4.60
2019-03-29T03:45:36.625Z,4.00
2019-03-29T03:48:16.793Z,4.50
2019-03-29T03:50:56.932Z,4.50
2019-03-29T03:53:37.305Z,4.40
2019-03-29T03:56:17.270Z,3.60
2019-03-29T03:58:57.259Z,4.30
2019-03-29T04:01:37.455Z,3.30
2019-03-29T04:04:17.610Z,5.20
2019-03-29T04:06:57.707Z,5.40
2019-03-29T04:09:49.556Z,4.20
2019-03-29T04:12:19.963Z,4.20
2019-03-29T04:14:59.971Z,3.80
2019-03-29T04:17:40.087Z,5.00
2019-03-29T04:20:20.029Z,4.00
2019-03-29T04:23:00.098Z,4.00
2019-03-29T04:25:40.277Z,5.20
2019-03-29T04:28:20.342Z,3.90
2019-03-29T04:31:00.245Z,3.90
2019-03-29T04:33:40.231Z,3.30
2019-03-29T04:36:20.298Z,3.60
2019-03-29T04:39:00.249Z,3.70
2019-03-29T04:41:40.274Z,3.70
2019-03-29T04:44:20.318Z,3.60
2019-03-29T04:47:01.012Z,2.80
2019-03-29T04:49:41.139Z,3.40
2019-03-29T04:52:21.217Z,5.00
2019-03-29T04:55:01.192Z,3.40
2019-03-29T04:57:41.274Z,3.30
2019-03-29T05:00:21.438Z,4.10
2019-03-29T05:03:01.552Z,3.30
2019-03-29T05:05:41.724Z,4.00
2019-03-29T05:08:21.609Z,3.50
2019-03-29T05:11:01.606Z,3.30
2019-03-29T05:13:41.525Z,3.30
2019-03-29T05:16:21.567Z,2.50
2019-03-29T05:19:01.447Z,3.10
2019-03-29T05:21:41.596Z,3.20
2019-03-29T05:24:21.636Z,2.50
2019-03-29T05:27:01.831Z,2.80
2019-03-29T05:29:41.641Z,2.30
2019-03-29T05:32:21.532Z,2.90
2019-03-29T05:35:01.595Z,3.20
2019-03-29T05:37:41.806Z,3.20
2019-03-29T05:40:34.264Z,3.20
2019-03-29T05:43:03.940Z,3.30
2019-03-29T05:45:43.953Z,3.30
2019-03-29T05:48:24.092Z,3.30
2019-03-29T05:51:04.251Z,3.40
2019-03-29T05:53:44.513Z,3.40
2019-03-29T05:56:24.607Z,3.50
2019-03-29T05:59:04.648Z,3.60
2019-03-29T06:01:44.466Z,3.80
2019-03-29T06:04:24.516Z,4.00
2019-03-29T06:07:04.547Z,4.60
2019-03-29T06:09:44.587Z,4.50
2019-03-29T06:12:24.596Z,4.90
2019-03-29T06:15:04.785Z,4.70
2019-03-29T06:17:48.775Z,5.60
2019-03-29T06:20:27.118Z,6.20
2019-03-29T06:23:07.224Z,5.60
2019-03-29T06:25:47.512Z,6.60
2019-03-29T06:28:30.021Z,6.90
2019-03-29T06:31:09.575Z,7.30
2019-03-29T06:33:49.476Z,6.70
2019-03-29T06:36:29.511Z,7.80
2019-03-29T06:39:09.439Z,8.30
2019-03-29T06:41:49.488Z,7.80
2019-03-29T06:44:29.466Z,8.80
2019-03-29T06:47:09.462Z,9.00
2019-03-29T06:49:49.472Z,8.30
2019-03-29T06:52:29.541Z,9.30
2019-03-29T06:55:09.679Z,8.80
2019-03-29T06:57:49.887Z,9.60
2019-03-29T07:00:29.892Z,9.20
2019-03-29T07:03:10.018Z,9.90
2019-03-29T07:05:50.131Z,10.00
2019-03-29T07:08:30.280Z,9.90
2019-03-29T07:11:17.291Z,9.50
2019-03-29T07:13:57.853Z,10.10
2019-03-29T07:16:35.029Z,10.20
2019-03-29T07:19:15.216Z,10.00
2019-03-29T07:21:55.328Z,10.40
2019-03-29T07:24:35.482Z,11.40
2019-03-29T07:27:15.320Z,11.30
2019-03-29T07:29:55.352Z,10.90
2019-03-29T07:32:35.503Z,10.30
2019-03-29T07:35:15.564Z,12.00
2019-03-29T07:37:55.408Z,11.80
2019-03-29T07:40:35.299Z,12.10
2019-03-29T07:43:15.390Z,13.50
2019-03-29T07:45:55.473Z,12.80
2019-03-29T07:48:35.370Z,13.10
2019-03-29T07:51:15.463Z,13.40
2019-03-29T07:53:55.589Z,13.60
2019-03-29T07:56:35.560Z,13.70
2019-03-29T07:59:15.397Z,15.10
2019-03-29T08:01:55.505Z,14.30
2019-03-29T08:04:35.605Z,14.50
2019-03-29T08:07:26.698Z,15.50
2019-03-29T08:09:57.784Z,14.90
2019-03-29T08:12:40.545Z,15.10
2019-03-29T08:15:19.794Z,15.80
2019-03-29T08:18:01.620Z,16.50
2019-03-29T08:20:44.181Z,16.50
2019-03-29T08:23:23.883Z,15.90
2019-03-29T08:26:04.010Z,16.20
2019-03-29T08:28:44.034Z,15.40
2019-03-29T08:31:23.940Z,16.30
2019-03-29T08:34:03.980Z,16.40
2019-03-29T08:36:43.830Z,15.90
2019-03-29T08:39:28.154Z,16.60
2019-03-29T08:42:06.005Z,17.70
2019-03-29T08:44:46.060Z,16.20
2019-03-29T08:47:26.034Z,16.90
2019-03-29T08:50:06.035Z,17.10
2019-03-29T08:52:46.154Z,17.70
2019-03-29T08:55:26.195Z,17.30
2019-03-29T08:58:06.271Z,17.30
2019-03-29T09:00:46.384Z,17.30
2019-03-29T09:03:26.062Z,17.30
2019-03-29T09:06:06.041Z,17.30
2019-03-29T09:08:46.142Z,17.30
2019-03-29T09:11:26.190Z,16.80
2019-03-29T09:14:06.071Z,17.40
2019-03-29T09:16:46.264Z,17.20
2019-03-29T09:19:26.734Z,17.20
2019-03-29T09:22:06.932Z,16.90
2019-03-29T09:27:51.005Z,17.60
2019-03-29T09:30:30.955Z,16.70
2019-03-29T09:33:10.999Z,17.60
2019-03-29T09:35:51.113Z,18.10
2019-03-29T09:38:31.021Z,17.20
2019-03-29T09:41:11.073Z,17.30
2019-03-29T09:43:54.249Z,18.00
2019-03-29T09:46:33.481Z,18.10
2019-03-29T09:49:13.635Z,19.20
2019-03-29T09:51:53.646Z,18.20
2019-03-29T09:54:33.720Z,18.20
2019-03-29T09:57:15.615Z,18.40
2019-03-29T09:59:55.919Z,18.00
2019-03-29T10:02:36.052Z,18.00
2019-03-29T10:05:15.971Z,18.80
2019-03-29T10:07:55.832Z,19.80
2019-03-29T10:10:35.821Z,18.10
2019-03-29T10:13:15.981Z,18.30
2019-03-29T10:15:55.720Z,18.80
2019-03-29T10:18:35.645Z,18.70
2019-03-29T10:21:17.437Z,19.30
2019-03-29T10:23:57.605Z,18.10
2019-03-29T10:26:37.728Z,18.90
2019-03-29T10:29:17.852Z,18.90
2019-03-29T10:31:57.716Z,18.40
2019-03-29T10:34:37.904Z,18.80
2019-03-29T10:37:17.923Z,19.00
2019-03-29T10:39:57.902Z,19.70
2019-03-29T10:42:40.087Z,19.00
2019-03-29T10:45:19.981Z,19.10
2019-03-29T10:47:59.962Z,18.90
2019-03-29T10:50:39.951Z,19.20
2019-03-29T10:53:19.838Z,19.00
2019-03-29T10:55:59.751Z,19.10
2019-03-29T10:58:39.705Z,19.20
2019-03-29T11:01:19.684Z,19.00
2019-03-29T11:03:59.436Z,19.10
2019-03-29T11:06:39.599Z,19.30
2019-03-29T11:09:20.213Z,19.30
2019-03-29T11:12:00.114Z,20.10
2019-03-29T11:14:39.997Z,19.20
2019-03-29T11:17:19.848Z,20.00
2019-03-29T11:19:59.799Z,18.60
2019-03-29T11:22:39.640Z,18.60
2019-03-29T11:25:19.697Z,18.90
2019-03-29T11:28:00.372Z,19.00
2019-03-29T11:30:42.809Z,19.30
2019-03-29T11:33:22.304Z,19.40
2019-03-29T11:36:02.268Z,19.80
2019-03-29T11:38:42.435Z,18.70
2019-03-29T11:41:22.197Z,19.30
2019-03-29T11:44:02.205Z,19.50
2019-03-29T11:46:42.101Z,19.60
2019-03-29T11:49:22.237Z,19.20
2019-03-29T11:52:02.202Z,19.60
2019-03-29T11:54:42.092Z,19.60
2019-03-29T11:57:21.949Z,19.70
2019-03-29T12:00:01.966Z,19.70
2019-03-29T12:02:42.006Z,19.60
2019-03-29T12:05:21.829Z,19.60
2019-03-29T12:08:01.699Z,19.60
2019-03-29T12:10:41.735Z,19.60
2019-03-29T12:13:22.106Z,19.60
2019-03-29T12:16:02.040Z,20.40
2019-03-29T12:18:42.016Z,19.70
2019-03-29T12:21:21.939Z,19.70
2019-03-29T12:24:01.972Z,19.70
2019-03-29T12:26:43.126Z,19.80
2019-03-29T12:29:23.025Z,19.30
2019-03-29T12:32:03.366Z,19.50
2019-03-29T12:34:43.095Z,19.40
2019-03-29T12:37:23.168Z,19.20
2019-03-29T12:40:03.390Z,19.20
2019-03-29T12:42:43.282Z,18.70
2019-03-29T12:45:23.425Z,19.50
2019-03-29T12:48:03.352Z,19.50
2019-03-29T12:50:43.645Z,19.40
2019-03-29T12:53:23.296Z,19.40
2019-03-29T12:56:03.499Z,19.70
2019-03-29T12:58:43.482Z,19.20
2019-03-29T13:01:23.388Z,18.50
2019-03-29T13:04:03.237Z,20.20
2019-03-29T13:06:43.656Z,20.20
2019-03-29T13:09:23.541Z,19.30
2019-03-29T13:12:03.394Z,19.40
2019-03-29T13:14:43.409Z,19.50
2019-03-29T13:17:23.553Z,19.40
2019-03-29T13:20:03.673Z,19.50
2019-03-29T13:22:43.819Z,19.40
2019-03-29T13:25:23.721Z,18.60
2019-03-29T13:28:03.919Z,18.40
2019-03-29T13:30:43.945Z,19.20
2019-03-29T13:33:24.068Z,18.90
2019-03-29T13:36:04.006Z,19.20
2019-03-29T13:38:44.023Z,19.20
2019-03-29T13:41:24.025Z,19.00
2019-03-29T13:44:04.174Z,19.30
2019-03-29T13:46:44.085Z,19.00
2019-03-29T13:49:23.856Z,18.90
2019-03-29T13:52:03.955Z,18.10
2019-03-29T13:54:43.934Z,18.90
2019-03-29T13:57:23.997Z,18.90
2019-03-29T14:00:03.881Z,18.10
2019-03-29T14:02:43.788Z,18.10
2019-03-29T14:05:23.958Z,18.60
2019-03-29T14:08:04.171Z,18.20
2019-03-29T14:10:44.042Z,18.50
2019-03-29T14:13:24.135Z,18.60
2019-03-29T14:16:04.127Z,18.30
2019-03-29T14:18:44.081Z,18.70
2019-03-29T14:21:23.896Z,18.70
2019-03-29T14:24:03.929Z,18.60
2019-03-29T14:26:44.021Z,19.30
2019-03-29T14:29:24.079Z,18.50
2019-03-29T14:32:03.924Z,18.50
2019-03-29T14:34:43.981Z,18.80
2019-03-29T14:37:23.910Z,18.40
2019-03-29T14:40:03.960Z,18.30
2019-03-29T14:42:43.699Z,18.30
2019-03-29T14:45:23.668Z,18.30
2019-03-29T14:48:03.727Z,19.40
2019-03-29T14:50:43.757Z,18.20
2019-03-29T14:53:23.904Z,18.20
2019-03-29T14:56:04.375Z,17.20
2019-03-29T14:58:44.928Z,18.70
2019-03-29T15:01:24.959Z,18.10
2019-03-29T15:04:04.991Z,18.10
2019-03-29T15:06:44.993Z,18.10
2019-03-29T15:09:25.110Z,18.00
2019-03-29T15:12:06.872Z,18.00
2019-03-29T15:14:47.418Z,18.00
2019-03-29T15:17:27.213Z,17.90
2019-03-29T15:20:07.293Z,17.90
2019-03-29T15:22:47.144Z,18.30
2019-03-29T15:25:27.134Z,17.90
2019-03-29T15:28:07.172Z,17.90
2019-03-29T15:30:47.241Z,18.00
2019-03-29T15:33:27.349Z,18.80
2019-03-29T15:36:07.581Z,17.00
2019-03-29T15:38:47.686Z,17.60
2019-03-29T15:41:27.808Z,17.50
2019-03-29T15:44:07.938Z,17.60
2019-03-29T15:46:48.091Z,17.20
2019-03-29T15:49:28.130Z,17.50
2019-03-29T15:52:08.027Z,17.50
2019-03-29T15:54:48.061Z,17.40
2019-03-29T15:57:28.048Z,17.50
2019-03-29T16:00:08.069Z,18.50
2019-03-29T16:02:48.012Z,17.30
2019-03-29T16:05:27.890Z,18.30
2019-03-29T16:08:07.833Z,17.80
2019-03-29T16:10:48.036Z,17.00
2019-03-29T16:13:27.957Z,18.20
2019-03-29T16:16:07.954Z,17.00
2019-03-29T16:18:47.843Z,16.90
2019-03-29T16:21:28.005Z,16.90
2019-03-29T16:24:07.932Z,16.80
2019-03-29T16:26:48.373Z,16.80
2019-03-29T16:29:28.206Z,16.80
2019-03-29T16:32:08.367Z,16.70
2019-03-29T16:34:50.698Z,16.90
2019-03-29T16:37:30.396Z,16.60
2019-03-29T16:40:10.460Z,16.50
2019-03-29T16:42:50.619Z,16.00
2019-03-29T16:45:30.870Z,17.20
2019-03-29T16:48:11.077Z,16.50
2019-03-29T16:50:50.966Z,17.10
2019-03-29T16:53:31.131Z,16.80
2019-03-29T16:56:12.218Z,17.10
2019-03-29T16:58:52.185Z,16.00
2019-03-29T17:01:32.109Z,17.10
2019-03-29T17:04:12.336Z,16.20
2019-03-29T17:06:52.294Z,15.90
2019-03-29T17:09:32.415Z,15.30
2019-03-29T17:12:12.474Z,15.00
2019-03-29T17:14:52.741Z,15.60
2019-03-29T17:17:32.495Z,15.50
2019-03-29T17:20:12.549Z,15.80
2019-03-29T17:22:52.411Z,14.70
2019-03-29T17:25:32.526Z,14.70
2019-03-29T17:28:12.703Z,15.10
2019-03-29T17:30:58.462Z,15.10
2019-03-29T17:33:38.770Z,14.30
2019-03-29T17:36:18.903Z,14.80
2019-03-29T17:38:58.984Z,14.70
2019-03-29T17:41:39.167Z,13.80
2019-03-29T17:44:19.192Z,15.60
2019-03-29T17:46:59.169Z,14.30
2019-03-29T17:49:39.142Z,14.50
2019-03-29T17:52:19.223Z,13.90
2019-03-29T17:54:59.438Z,13.80
2019-03-29T17:57:39.469Z,13.50
2019-03-29T18:00:21.369Z,13.50
2019-03-29T18:03:01.661Z,14.00
2019-03-29T18:05:41.647Z,13.20
2019-03-29T18:08:21.729Z,13.00
2019-03-29T18:11:01.628Z,12.90
2019-03-29T18:13:41.799Z,12.80
2019-03-29T18:16:30.605Z,11.80
2019-03-29T18:19:04.883Z,12.40
2019-03-29T18:21:45.153Z,12.80
2019-03-29T18:24:25.078Z,12.10
2019-03-29T18:27:05.182Z,12.00
2019-03-29T18:29:45.278Z,10.90
2019-03-29T18:32:25.191Z,12.00
2019-03-29T18:35:05.399Z,10.80
2019-03-29T18:37:45.408Z,11.40
2019-03-29T18:40:25.505Z,11.30
2019-03-29T18:43:05.464Z,11.20
2019-03-29T18:45:45.327Z,12.40
2019-03-29T18:48:25.362Z,10.90
2019-03-29T18:51:05.556Z,10.90
2019-03-29T18:53:45.735Z,10.80
2019-03-29T18:56:25.826Z,11.90
2019-03-29T18:59:05.867Z,9.80
2019-03-29T19:01:46.139Z,10.80
2019-03-29T19:04:26.107Z,11.20
2019-03-29T19:07:06.424Z,10.10
2019-03-29T19:09:46.394Z,10.10
2019-03-29T19:12:26.387Z,10.00
2019-03-29T19:15:06.248Z,9.80
2019-03-29T19:17:46.240Z,9.70
2019-03-29T19:20:28.128Z,8.60
2019-03-29T19:23:08.327Z,9.40
2019-03-29T19:25:48.441Z,8.80
2019-03-29T19:28:28.461Z,9.30
2019-03-29T19:31:08.436Z,10.60
2019-03-29T19:33:48.487Z,8.60
2019-03-29T19:36:28.748Z,9.20
2019-03-29T19:39:08.933Z,9.10
2019-03-29T19:41:49.008Z,10.40
2019-03-29T19:44:29.088Z,9.10
2019-03-29T19:47:13.801Z,9.00
2019-03-29T19:49:51.266Z,9.50
2019-03-29T19:52:31.143Z,8.90
2019-03-29T19:55:11.188Z,9.30
2019-03-29T19:57:51.288Z,8.80
2019-03-29T20:00:31.555Z,9.60
2019-03-29T20:03:11.642Z,8.00
2019-03-29T20:05:51.788Z,7.90
2019-03-29T20:08:31.763Z,8.60
2019-03-29T20:11:11.400Z,8.50
2019-03-29T20:13:51.463Z,8.50
2019-03-29T20:16:31.365Z,9.70
2019-03-29T20:19:11.479Z,8.30
2019-03-29T20:21:51.343Z,7.80
2019-03-29T20:24:31.369Z,8.20
2019-03-29T20:27:11.459Z,8.10
2019-03-29T20:29:51.427Z,8.00
2019-03-29T20:32:31.467Z,7.50
2019-03-29T20:35:11.439Z,8.30
2019-03-29T20:37:51.521Z,9.10
2019-03-29T20:40:32.163Z,8.20
2019-03-29T20:43:13.781Z,7.80
2019-03-29T20:45:54.097Z,7.70
2019-03-29T20:48:34.092Z,7.70
2019-03-29T20:51:14.363Z,7.70
2019-03-29T20:53:54.178Z,7.60
2019-03-29T20:56:34.429Z,6.50
2019-03-29T20:59:14.385Z,8.70
2019-03-29T21:01:54.548Z,8.50
2019-03-29T21:04:34.599Z,7.20
2019-03-29T21:07:14.729Z,7.20
2019-03-29T21:09:54.523Z,8.60
2019-03-29T21:12:34.657Z,7.10
2019-03-29T21:15:14.663Z,6.10
2019-03-29T21:17:56.985Z,7.90
2019-03-29T21:20:36.683Z,6.90
2019-03-29T21:23:16.652Z,6.90
2019-03-29T21:25:56.474Z,6.10
2019-03-29T21:28:36.479Z,8.30
2019-03-29T21:31:16.670Z,6.90
2019-03-29T21:33:56.775Z,7.60
2019-03-29T21:36:36.691Z,6.80
2019-03-29T21:39:16.987Z,6.80
2019-03-29T21:41:56.894Z,6.30
2019-03-29T21:44:36.976Z,6.80
2019-03-29T21:47:16.947Z,5.90
2019-03-29T21:49:56.806Z,6.70
2019-03-29T21:52:36.565Z,6.70
2019-03-29T21:55:16.515Z,8.00
2019-03-29T21:57:56.746Z,6.60
2019-03-29T22:00:36.811Z,6.50
2019-03-29T22:03:16.782Z,6.50
2019-03-29T22:05:56.794Z,6.40
2019-03-29T22:08:36.876Z,6.30
2019-03-29T22:11:16.742Z,6.40
2019-03-29T22:13:56.713Z,6.30
2019-03-29T22:16:36.828Z,6.30
2019-03-29T22:19:16.731Z,5.40
2019-03-29T22:21:56.651Z,6.80
2019-03-29T22:24:36.734Z,6.80
2019-03-29T22:27:16.710Z,5.40
2019-03-29T22:29:56.771Z,6.00
2019-03-29T22:32:36.827Z,7.20
2019-03-29T22:35:16.820Z,5.90
2019-03-29T22:37:56.742Z,5.90
2019-03-29T22:40:36.633Z,5.30
2019-03-29T22:43:16.695Z,6.90
2019-03-29T22:45:56.842Z,5.80
2019-03-29T22:48:36.767Z,5.70
2019-03-29T22:51:17.026Z,5.70
2019-03-29T22:53:57.012Z,4.90
2019-03-29T22:56:37.115Z,4.80
2019-03-29T22:59:17.020Z,6.80
2019-03-29T23:01:57.355Z,4.70
2019-03-29T23:04:37.159Z,5.40
2019-03-29T23:07:17.143Z,5.40
2019-03-29T23:09:57.043Z,5.40
2019-03-29T23:12:37.172Z,5.40
2019-03-29T23:15:17.239Z,5.30
2019-03-29T23:17:57.337Z,6.60
2019-03-29T23:20:37.341Z,5.20
2019-03-29T23:23:17.371Z,4.60
2019-03-29T23:25:57.337Z,6.30
2019-03-29T23:28:37.371Z,6.40
2019-03-29T23:31:17.269Z,5.00
2019-03-29T23:33:57.664Z,5.10
2019-03-29T23:36:37.725Z,5.00
2019-03-29T23:39:17.861Z,5.20
2019-03-29T23:41:57.998Z,5.00
2019-03-29T23:44:38.010Z,4.60
2019-03-29T23:47:17.883Z,4.90
2019-03-29T23:49:57.777Z,4.80
2019-03-29T23:52:37.820Z,6.20
2019-03-29T23:55:17.823Z,4.80
2019-03-29T23:57:57.976Z,5.60
